sensor_id;sensor_type;location;lat;lon;timestamp;temperature;humidity
64918;HTU21D;52176;44.858;38.372;2023-04-03T00:00:04;10.56;71.90
64918;HTU21D;52176;44.858;38.372;2023-04-03T00:02:31;10.64;72.33
64918;HTU21D;52176;44.858;38.372;2023-04-03T00:04:57;10.72;70.79
64918;HTU21D;52176;44.858;38.372;2023-04-03T00:07:23;10.71;72.30
64918;HTU21D;52176;44.858;38.372;2023-04-03T00:09:49;10.81;70.86
64918;HTU21D;52176;44.858;38.372;2023-04-03T00:12:14;10.80;70.10
64918;HTU21D;52176;44.858;38.372;2023-04-03T00:14:40;10.75;69.72
64918;HTU21D;52176;44.858;38.372;2023-04-03T00:17:06;10.69;69.57
64918;HTU21D;52176;44.858;38.372;2023-04-03T00:19:32;10.70;69.77
64918;HTU21D;52176;44.858;38.372;2023-04-03T00:21:58;10.80;69.96
64918;HTU21D;52176;44.858;38.372;2023-04-03T00:24:24;10.92;69.49
64918;HTU21D;52176;44.858;38.372;2023-04-03T00:26:50;11.01;69.91
64918;HTU21D;52176;44.858;38.372;2023-04-03T00:29:16;11.09;68.97
64918;HTU21D;52176;44.858;38.372;2023-04-03T00:31:41;11.14;68.91
64918;HTU21D;52176;44.858;38.372;2023-04-03T00:34:08;11.30;72.16
64918;HTU21D;52176;44.858;38.372;2023-04-03T00:36:33;11.46;70.72
64918;HTU21D;52176;44.858;38.372;2023-04-03T00:38:59;11.58;69.92
64918;HTU21D;52176;44.858;38.372;2023-04-03T00:41:25;11.74;71.05
64918;HTU21D;52176;44.858;38.372;2023-04-03T00:43:51;11.87;69.92
64918;HTU21D;52176;44.858;38.372;2023-04-03T00:46:17;11.96;69.27
64918;HTU21D;52176;44.858;38.372;2023-04-03T00:48:44;12.02;68.84
64918;HTU21D;52176;44.858;38.372;2023-04-03T00:51:22;12.05;68.52
64918;HTU21D;52176;44.858;38.372;2023-04-03T00:53:50;12.05;68.31
64918;HTU21D;52176;44.858;38.372;2023-04-03T00:56:19;12.08;69.63
64918;HTU21D;52176;44.858;38.372;2023-04-03T00:58:49;12.18;69.08
64918;HTU21D;52176;44.858;38.372;2023-04-03T01:01:17;12.20;68.36
64918;HTU21D;52176;44.858;38.372;2023-04-03T01:03:44;12.20;68.56
64918;HTU21D;52176;44.858;38.372;2023-04-03T01:06:10;12.16;67.98
64918;HTU21D;52176;44.858;38.372;2023-04-03T01:08:36;12.16;69.50
64918;HTU21D;52176;44.858;38.372;2023-04-03T01:11:02;12.29;69.52
64918;HTU21D;52176;44.858;38.372;2023-04-03T01:13:30;12.42;68.62
64918;HTU21D;52176;44.858;38.372;2023-04-03T01:15:56;12.46;68.23
64918;HTU21D;52176;44.858;38.372;2023-04-03T01:18:22;12.42;67.85
64918;HTU21D;52176;44.858;38.372;2023-04-03T01:26:17;12.66;68.71
64918;HTU21D;52176;44.858;38.372;2023-04-03T01:28:43;12.77;68.46
64918;HTU21D;52176;44.858;38.372;2023-04-03T01:31:20;12.86;67.68
64918;HTU21D;52176;44.858;38.372;2023-04-03T01:33:48;12.84;67.46
64918;HTU21D;52176;44.858;38.372;2023-04-03T01:36:16;12.74;67.14
64918;HTU21D;52176;44.858;38.372;2023-04-03T01:38:42;12.61;69.00
64918;HTU21D;52176;44.858;38.372;2023-04-03T01:41:08;12.66;68.37
64918;HTU21D;52176;44.858;38.372;2023-04-03T01:43:34;12.61;67.75
64918;HTU21D;52176;44.858;38.372;2023-04-03T01:46:00;12.55;69.70
64918;HTU21D;52176;44.858;38.372;2023-04-03T01:48:25;12.61;68.84
64918;HTU21D;52176;44.858;38.372;2023-04-03T01:50:53;12.61;70.12
64918;HTU21D;52176;44.858;38.372;2023-04-03T01:53:20;12.69;69.16
64918;HTU21D;52176;44.858;38.372;2023-04-03T01:55:46;12.65;68.86
64918;HTU21D;52176;44.858;38.372;2023-04-03T01:58:11;12.61;68.62
64918;HTU21D;52176;44.858;38.372;2023-04-03T02:00:37;12.55;68.66
64918;HTU21D;52176;44.858;38.372;2023-04-03T02:03:21;12.46;68.73
64918;HTU21D;52176;44.858;38.372;2023-04-03T02:05:47;12.41;68.87
64918;HTU21D;52176;44.858;38.372;2023-04-03T02:08:13;12.36;71.88
64918;HTU21D;52176;44.858;38.372;2023-04-03T02:10:39;12.43;70.61
64918;HTU21D;52176;44.858;38.372;2023-04-03T02:13:05;12.42;72.43
64918;HTU21D;52176;44.858;38.372;2023-04-03T02:15:31;12.52;72.97
64918;HTU21D;52176;44.858;38.372;2023-04-03T02:17:57;12.61;73.01
64918;HTU21D;52176;44.858;38.372;2023-04-03T02:20:22;12.70;71.67
64918;HTU21D;52176;44.858;38.372;2023-04-03T02:22:48;12.61;71.02
64918;HTU21D;52176;44.858;38.372;2023-04-03T02:25:14;12.50;70.74
64918;HTU21D;52176;44.858;38.372;2023-04-03T02:27:40;12.36;70.61
64918;HTU21D;52176;44.858;38.372;2023-04-03T02:30:06;12.25;74.25
64918;HTU21D;52176;44.858;38.372;2023-04-03T02:32:32;12.28;72.93
64918;HTU21D;52176;44.858;38.372;2023-04-03T02:34:58;12.25;72.47
64918;HTU21D;52176;44.858;38.372;2023-04-03T02:37:24;12.19;72.29
64918;HTU21D;52176;44.858;38.372;2023-04-03T02:39:53;12.14;75.77
64918;HTU21D;52176;44.858;38.372;2023-04-03T02:42:18;12.21;76.70
64918;HTU21D;52176;44.858;38.372;2023-04-03T02:44:44;12.29;74.99
64918;HTU21D;52176;44.858;38.372;2023-04-03T02:47:10;12.29;74.15
64918;HTU21D;52176;44.858;38.372;2023-04-03T02:49:36;12.18;73.58
64918;HTU21D;52176;44.858;38.372;2023-04-03T02:52:02;12.10;73.46
64918;HTU21D;52176;44.858;38.372;2023-04-03T02:54:28;12.01;73.47
64918;HTU21D;52176;44.858;38.372;2023-04-03T02:56:59;11.93;73.54
64918;HTU21D;52176;44.858;38.372;2023-04-03T02:59:25;11.91;77.31
64918;HTU21D;52176;44.858;38.372;2023-04-03T03:01:51;12.02;78.11
64918;HTU21D;52176;44.858;38.372;2023-04-03T03:04:17;12.11;76.38
64918;HTU21D;52176;44.858;38.372;2023-04-03T03:06:42;12.11;75.60
64918;HTU21D;52176;44.858;38.372;2023-04-03T03:09:08;12.08;75.22
64918;HTU21D;52176;44.858;38.372;2023-04-03T03:11:34;12.04;77.62
64918;HTU21D;52176;44.858;38.372;2023-04-03T03:14:01;12.15;78.10
64918;HTU21D;52176;44.858;38.372;2023-04-03T03:16:27;12.23;76.54
64918;HTU21D;52176;44.858;38.372;2023-04-03T03:18:54;12.21;75.83
64918;HTU21D;52176;44.858;38.372;2023-04-03T03:21:20;12.16;75.47
64918;HTU21D;52176;44.858;38.372;2023-04-03T03:23:46;12.10;77.69
64918;HTU21D;52176;44.858;38.372;2023-04-03T03:26:12;12.19;77.97
64918;HTU21D;52176;44.858;38.372;2023-04-03T03:28:38;12.30;77.76
64918;HTU21D;52176;44.858;38.372;2023-04-03T03:31:05;12.38;77.45
64918;HTU21D;52176;44.858;38.372;2023-04-03T03:33:32;12.46;77.18
64918;HTU21D;52176;44.858;38.372;2023-04-03T03:35:59;12.51;77.00
64918;HTU21D;52176;44.858;38.372;2023-04-03T03:38:26;12.61;75.93
64918;HTU21D;52176;44.858;38.372;2023-04-03T03:40:53;12.50;75.34
64918;HTU21D;52176;44.858;38.372;2023-04-03T03:43:20;12.41;75.12
64918;HTU21D;52176;44.858;38.372;2023-04-03T03:45:51;12.32;75.05
64918;HTU21D;52176;44.858;38.372;2023-04-03T03:48:18;12.22;75.06
64918;HTU21D;52176;44.858;38.372;2023-04-03T03:50:45;12.15;77.24
64918;HTU21D;52176;44.858;38.372;2023-04-03T03:53:11;12.23;77.57
64918;HTU21D;52176;44.858;38.372;2023-04-03T03:55:38;12.33;76.39
64918;HTU21D;52176;44.858;38.372;2023-04-03T03:58:04;12.33;77.23
64918;HTU21D;52176;44.858;38.372;2023-04-03T04:00:31;12.44;77.09
64918;HTU21D;52176;44.858;38.372;2023-04-03T04:02:57;12.53;76.85
64918;HTU21D;52176;44.858;38.372;2023-04-03T04:05:25;12.61;75.75
64918;HTU21D;52176;44.858;38.372;2023-04-03T04:07:52;12.58;75.31
64918;HTU21D;52176;44.858;38.372;2023-04-03T04:10:18;12.51;75.03
64918;HTU21D;52176;44.858;38.372;2023-04-03T04:12:45;12.40;77.79
64918;HTU21D;52176;44.858;38.372;2023-04-03T04:15:11;12.45;78.76
64918;HTU21D;52176;44.858;38.372;2023-04-03T04:17:38;12.49;79.17
64918;HTU21D;52176;44.858;38.372;2023-04-03T04:20:07;12.53;77.77
64918;HTU21D;52176;44.858;38.372;2023-04-03T04:22:35;12.47;77.17
64918;HTU21D;52176;44.858;38.372;2023-04-03T04:25:01;12.40;76.88
64918;HTU21D;52176;44.858;38.372;2023-04-03T04:27:27;12.31;76.70
64918;HTU21D;52176;44.858;38.372;2023-04-03T04:29:53;12.19;79.88
64918;HTU21D;52176;44.858;38.372;2023-04-03T04:32:20;12.27;80.78
64918;HTU21D;52176;44.858;38.372;2023-04-03T04:34:46;12.33;79.21
64918;HTU21D;52176;44.858;38.372;2023-04-03T04:37:24;12.34;78.56
64918;HTU21D;52176;44.858;38.372;2023-04-03T04:39:52;12.30;78.11
64918;HTU21D;52176;44.858;38.372;2023-04-03T04:42:17;12.23;80.75
64918;HTU21D;52176;44.858;38.372;2023-04-03T04:44:46;12.32;80.95
64918;HTU21D;52176;44.858;38.372;2023-04-03T04:47:13;12.43;80.93
64918;HTU21D;52176;44.858;38.372;2023-04-03T04:49:40;12.51;80.62
64918;HTU21D;52176;44.858;38.372;2023-04-03T04:52:07;12.59;80.09
64918;HTU21D;52176;44.858;38.372;2023-04-03T04:54:33;12.72;78.80
64918;HTU21D;52176;44.858;38.372;2023-04-03T04:56:59;12.65;78.05
64918;HTU21D;52176;44.858;38.372;2023-04-03T04:59:27;12.52;79.54
64918;HTU21D;52176;44.858;38.372;2023-04-03T05:01:55;12.57;79.01
64918;HTU21D;52176;44.858;38.372;2023-04-03T05:04:21;12.63;77.90
64918;HTU21D;52176;44.858;38.372;2023-04-03T05:06:52;12.62;77.37
64918;HTU21D;52176;44.858;38.372;2023-04-03T05:09:22;12.52;77.04
64918;HTU21D;52176;44.858;38.372;2023-04-03T05:11:49;12.38;76.85
64918;HTU21D;52176;44.858;38.372;2023-04-03T05:14:18;12.23;79.06
64918;HTU21D;52176;44.858;38.372;2023-04-03T05:16:44;12.31;79.27
64918;HTU21D;52176;44.858;38.372;2023-04-03T05:19:11;12.41;78.78
64918;HTU21D;52176;44.858;38.372;2023-04-03T05:21:39;12.49;78.80
64918;HTU21D;52176;44.858;38.372;2023-04-03T05:24:10;12.60;77.69
64918;HTU21D;52176;44.858;38.372;2023-04-03T05:26:39;12.55;78.77
64918;HTU21D;52176;44.858;38.372;2023-04-03T05:29:06;12.63;78.68
64918;HTU21D;52176;44.858;38.372;2023-04-03T05:31:32;12.74;77.58
64918;HTU21D;52176;44.858;38.372;2023-04-03T05:33:58;12.66;76.96
64918;HTU21D;52176;44.858;38.372;2023-04-03T05:36:26;12.56;78.42
64918;HTU21D;52176;44.858;38.372;2023-04-03T05:38:57;12.61;77.45
64918;HTU21D;52176;44.858;38.372;2023-04-03T05:41:24;12.56;78.46
64918;HTU21D;52176;44.858;38.372;2023-04-03T05:43:50;12.63;77.41
64918;HTU21D;52176;44.858;38.372;2023-04-03T05:46:18;12.60;76.94
64918;HTU21D;52176;44.858;38.372;2023-04-03T05:48:48;12.52;76.74
64918;HTU21D;52176;44.858;38.372;2023-04-03T05:51:19;12.48;76.54
64918;HTU21D;52176;44.858;38.372;2023-04-03T05:53:50;12.40;78.66
64918;HTU21D;52176;44.858;38.372;2023-04-03T05:56:17;12.45;77.60
64918;HTU21D;52176;44.858;38.372;2023-04-03T05:58:46;12.48;77.06
64918;HTU21D;52176;44.858;38.372;2023-04-03T06:01:12;12.43;76.77
64918;HTU21D;52176;44.858;38.372;2023-04-03T06:03:39;12.33;76.38
64918;HTU21D;52176;44.858;38.372;2023-04-03T06:06:07;12.26;76.35
64918;HTU21D;52176;44.858;38.372;2023-04-03T06:08:33;12.19;76.38
64918;HTU21D;52176;44.858;38.372;2023-04-03T06:11:00;12.16;79.21
64918;HTU21D;52176;44.858;38.372;2023-04-03T06:13:27;12.21;78.09
64918;HTU21D;52176;44.858;38.372;2023-04-03T06:15:54;12.20;79.35
64918;HTU21D;52176;44.858;38.372;2023-04-03T06:18:19;12.29;78.29
64918;HTU21D;52176;44.858;38.372;2023-04-03T06:20:46;12.32;77.74
64918;HTU21D;52176;44.858;38.372;2023-04-03T06:23:12;12.27;77.30
64918;HTU21D;52176;44.858;38.372;2023-04-03T06:25:38;12.19;79.65
64918;HTU21D;52176;44.858;38.372;2023-04-03T06:28:04;12.31;80.17
64918;HTU21D;52176;44.858;38.372;2023-04-03T06:30:30;12.45;78.85
64918;HTU21D;52176;44.858;38.372;2023-04-03T06:32:55;12.44;78.07
64918;HTU21D;52176;44.858;38.372;2023-04-03T06:35:21;12.43;77.89
64918;HTU21D;52176;44.858;38.372;2023-04-03T06:37:49;12.38;77.40
64918;HTU21D;52176;44.858;38.372;2023-04-03T06:40:19;12.30;79.98
64918;HTU21D;52176;44.858;38.372;2023-04-03T06:42:46;12.45;80.82
64918;HTU21D;52176;44.858;38.372;2023-04-03T06:45:12;12.63;80.76
64918;HTU21D;52176;44.858;38.372;2023-04-03T06:47:38;12.78;80.40
64918;HTU21D;52176;44.858;38.372;2023-04-03T06:50:04;12.91;79.78
64918;HTU21D;52176;44.858;38.372;2023-04-03T06:52:31;13.02;79.39
64918;HTU21D;52176;44.858;38.372;2023-04-03T06:54:56;13.10;79.04
64918;HTU21D;52176;44.858;38.372;2023-04-03T06:57:25;13.25;78.04
64918;HTU21D;52176;44.858;38.372;2023-04-03T06:59:50;13.20;77.42
64918;HTU21D;52176;44.858;38.372;2023-04-03T07:02:17;13.14;77.15
64918;HTU21D;52176;44.858;38.372;2023-04-03T07:04:42;13.08;76.98
64918;HTU21D;52176;44.858;38.372;2023-04-03T07:07:08;12.97;78.91
64918;HTU21D;52176;44.858;38.372;2023-04-03T07:09:34;13.06;78.95
64918;HTU21D;52176;44.858;38.372;2023-04-03T07:12:00;13.15;78.45
64918;HTU21D;52176;44.858;38.372;2023-04-03T07:14:25;13.22;78.14
64918;HTU21D;52176;44.858;38.372;2023-04-03T07:16:51;13.26;77.56
64918;HTU21D;52176;44.858;38.372;2023-04-03T07:19:17;13.31;77.22
64918;HTU21D;52176;44.858;38.372;2023-04-03T07:21:44;13.37;76.55
64918;HTU21D;52176;44.858;38.372;2023-04-03T07:24:10;13.33;76.24
64918;HTU21D;52176;44.858;38.372;2023-04-03T07:26:36;13.22;77.21
64918;HTU21D;52176;44.858;38.372;2023-04-03T07:29:02;13.29;77.16
64918;HTU21D;52176;44.858;38.372;2023-04-03T07:31:28;13.39;76.91
64918;HTU21D;52176;44.858;38.372;2023-04-03T07:33:54;13.49;76.76
64918;HTU21D;52176;44.858;38.372;2023-04-03T07:36:21;13.60;76.01
64918;HTU21D;52176;44.858;38.372;2023-04-03T07:38:48;13.61;75.60
64918;HTU21D;52176;44.858;38.372;2023-04-03T07:41:16;13.56;75.47
64918;HTU21D;52176;44.858;38.372;2023-04-03T07:43:44;13.53;75.38
64918;HTU21D;52176;44.858;38.372;2023-04-03T07:46:10;13.49;75.32
64918;HTU21D;52176;44.858;38.372;2023-04-03T07:48:37;13.45;75.28
64918;HTU21D;52176;44.858;38.372;2023-04-03T07:51:04;13.43;75.24
64918;HTU21D;52176;44.858;38.372;2023-04-03T07:53:30;13.43;75.15
64918;HTU21D;52176;44.858;38.372;2023-04-03T07:55:57;13.43;75.15
64918;HTU21D;52176;44.858;38.372;2023-04-03T07:58:24;13.46;75.09
64918;HTU21D;52176;44.858;38.372;2023-04-03T08:00:50;13.53;75.00
64918;HTU21D;52176;44.858;38.372;2023-04-03T08:03:16;13.63;74.85
64918;HTU21D;52176;44.858;38.372;2023-04-03T08:05:45;13.73;74.61
64918;HTU21D;52176;44.858;38.372;2023-04-03T08:08:14;13.82;74.31
64918;HTU21D;52176;44.858;38.372;2023-04-03T08:10:41;13.95;74.03
64918;HTU21D;52176;44.858;38.372;2023-04-03T08:13:07;14.10;73.70
64918;HTU21D;52176;44.858;38.372;2023-04-03T08:15:34;14.29;73.43
64918;HTU21D;52176;44.858;38.372;2023-04-03T08:18:00;14.56;72.97
64918;HTU21D;52176;44.858;38.372;2023-04-03T08:20:27;14.81;72.40
64918;HTU21D;52176;44.858;38.372;2023-04-03T08:22:53;15.07;71.87
64918;HTU21D;52176;44.858;38.372;2023-04-03T08:25:19;15.32;71.19
64918;HTU21D;52176;44.858;38.372;2023-04-03T08:27:46;15.54;70.57
64918;HTU21D;52176;44.858;38.372;2023-04-03T08:30:12;15.72;69.59
64918;HTU21D;52176;44.858;38.372;2023-04-03T08:32:38;15.83;69.17
64918;HTU21D;52176;44.858;38.372;2023-04-03T08:35:07;15.99;68.78
64918;HTU21D;52176;44.858;38.372;2023-04-03T08:37:35;16.08;67.65
64918;HTU21D;52176;44.858;38.372;2023-04-03T08:40:02;16.52;67.17
64918;HTU21D;52176;44.858;38.372;2023-04-03T08:45:12;18.39;64.86
64918;HTU21D;52176;44.858;38.372;2023-04-03T08:50:06;19.84;57.09
64918;HTU21D;52176;44.858;38.372;2023-04-03T08:55:03;21.49;55.69
64918;HTU21D;52176;44.858;38.372;2023-04-03T08:57:38;20.91;53.36
64918;HTU21D;52176;44.858;38.372;2023-04-03T09:00:06;20.89;53.30
64918;HTU21D;52176;44.858;38.372;2023-04-03T09:02:34;20.75;51.91
64918;HTU21D;52176;44.858;38.372;2023-04-03T09:05:10;20.43;52.01
64918;HTU21D;52176;44.858;38.372;2023-04-03T09:10:22;19.76;53.72
64918;HTU21D;52176;44.858;38.372;2023-04-03T09:12:51;19.51;53.81
64918;HTU21D;52176;44.858;38.372;2023-04-03T09:15:20;19.35;54.23
64918;HTU21D;52176;44.858;38.372;2023-04-03T09:20:26;19.20;55.38
64918;HTU21D;52176;44.858;38.372;2023-04-03T09:22:55;18.96;55.95
64918;HTU21D;52176;44.858;38.372;2023-04-03T09:25:28;18.57;56.86
64918;HTU21D;52176;44.858;38.372;2023-04-03T09:27:59;18.51;56.67
64918;HTU21D;52176;44.858;38.372;2023-04-03T09:30:25;18.56;56.79
64918;HTU21D;52176;44.858;38.372;2023-04-03T09:32:52;18.42;57.37
64918;HTU21D;52176;44.858;38.372;2023-04-03T09:35:37;18.51;56.75
64918;HTU21D;52176;44.858;38.372;2023-04-03T09:40:39;18.69;56.53
64918;HTU21D;52176;44.858;38.372;2023-04-03T09:43:38;18.58;56.76
64918;HTU21D;52176;44.858;38.372;2023-04-03T09:46:17;18.53;57.04
64918;HTU21D;52176;44.858;38.372;2023-04-03T09:48:55;18.43;57.19
64918;HTU21D;52176;44.858;38.372;2023-04-03T09:51:24;18.25;57.86
64918;HTU21D;52176;44.858;38.372;2023-04-03T09:53:50;18.42;57.54
64918;HTU21D;52176;44.858;38.372;2023-04-03T09:58:43;18.40;57.61
64918;HTU21D;52176;44.858;38.372;2023-04-03T10:01:26;18.28;58.03
64918;HTU21D;52176;44.858;38.372;2023-04-03T10:06:49;19.24;56.31
64918;HTU21D;52176;44.858;38.372;2023-04-03T10:09:18;20.39;54.85
64918;HTU21D;52176;44.858;38.372;2023-04-03T10:12:04;20.64;52.47
64918;HTU21D;52176;44.858;38.372;2023-04-03T10:14:34;21.39;52.69
64918;HTU21D;52176;44.858;38.372;2023-04-03T10:17:17;21.87;51.11
64918;HTU21D;52176;44.858;38.372;2023-04-03T10:25:12;23.64;47.92
64918;HTU21D;52176;44.858;38.372;2023-04-03T10:27:44;23.95;47.34
64918;HTU21D;52176;44.858;38.372;2023-04-03T10:30:21;23.57;45.59
64918;HTU21D;52176;44.858;38.372;2023-04-03T10:32:58;23.99;46.00
64918;HTU21D;52176;44.858;38.372;2023-04-03T10:45:49;24.10;44.64
64918;HTU21D;52176;44.858;38.372;2023-04-03T10:48:18;24.12;44.32
64918;HTU21D;52176;44.858;38.372;2023-04-03T10:53:24;24.28;43.90
64918;HTU21D;52176;44.858;38.372;2023-04-03T10:58:29;24.75;43.75
64918;HTU21D;52176;44.858;38.372;2023-04-03T11:00:56;24.85;43.83
64918;HTU21D;52176;44.858;38.372;2023-04-03T11:03:59;24.84;43.93
64918;HTU21D;52176;44.858;38.372;2023-04-03T14:08:02;18.07;57.17
64918;HTU21D;52176;44.858;38.372;2023-04-03T14:10:28;17.92;57.10
64918;HTU21D;52176;44.858;38.372;2023-04-03T14:12:55;17.76;57.10
64918;HTU21D;52176;44.858;38.372;2023-04-03T14:15:27;17.53;57.46
64918;HTU21D;52176;44.858;38.372;2023-04-03T14:17:53;17.35;57.74
64918;HTU21D;52176;44.858;38.372;2023-04-03T14:20:22;17.08;60.06
64918;HTU21D;52176;44.858;38.372;2023-04-03T14:22:48;17.11;60.22
64918;HTU21D;52176;44.858;38.372;2023-04-03T14:25:14;17.18;60.25
64918;HTU21D;52176;44.858;38.372;2023-04-03T14:27:42;17.26;60.06
64918;HTU21D;52176;44.858;38.372;2023-04-03T14:30:11;17.34;59.99
64918;HTU21D;52176;44.858;38.372;2023-04-03T14:32:38;17.44;59.75
64918;HTU21D;52176;44.858;38.372;2023-04-03T14:35:04;17.50;59.56
64918;HTU21D;52176;44.858;38.372;2023-04-03T14:37:30;17.55;59.10
64918;HTU21D;52176;44.858;38.372;2023-04-03T14:39:57;17.58;58.35
64918;HTU21D;52176;44.858;38.372;2023-04-03T14:42:24;17.41;58.36
64918;HTU21D;52176;44.858;38.372;2023-04-03T14:44:51;17.18;58.54
64918;HTU21D;52176;44.858;38.372;2023-04-03T14:47:21;16.84;60.09
64918;HTU21D;52176;44.858;38.372;2023-04-03T14:49:48;16.76;60.70
64918;HTU21D;52176;44.858;38.372;2023-04-03T14:52:36;16.72;60.78
64918;HTU21D;52176;44.858;38.372;2023-04-03T14:55:02;16.63;61.11
64918;HTU21D;52176;44.858;38.372;2023-04-03T14:57:28;16.58;61.31
64918;HTU21D;52176;44.858;38.372;2023-04-03T14:59:55;16.49;61.10
64918;HTU21D;52176;44.858;38.372;2023-04-03T15:02:28;16.43;61.26
64918;HTU21D;52176;44.858;38.372;2023-04-03T15:04:55;16.39;61.62
64918;HTU21D;52176;44.858;38.372;2023-04-03T15:07:21;16.32;61.70
64918;HTU21D;52176;44.858;38.372;2023-04-03T15:09:48;16.27;61.76
64918;HTU21D;52176;44.858;38.372;2023-04-03T15:12:14;16.26;61.03
64918;HTU21D;52176;44.858;38.372;2023-04-03T15:14:40;16.13;60.84
64918;HTU21D;52176;44.858;38.372;2023-04-03T15:17:06;15.87;60.97
64918;HTU21D;52176;44.858;38.372;2023-04-03T15:19:34;15.65;61.34
64918;HTU21D;52176;44.858;38.372;2023-04-03T15:22:01;15.38;63.51
64918;HTU21D;52176;44.858;38.372;2023-04-03T15:24:27;15.38;64.01
64918;HTU21D;52176;44.858;38.372;2023-04-03T15:26:52;15.39;63.08
64918;HTU21D;52176;44.858;38.372;2023-04-03T15:29:18;15.23;64.48
64918;HTU21D;52176;44.858;38.372;2023-04-03T15:31:44;15.27;63.44
64918;HTU21D;52176;44.858;38.372;2023-04-03T15:34:10;15.16;63.02
64918;HTU21D;52176;44.858;38.372;2023-04-03T15:36:36;14.97;62.97
64918;HTU21D;52176;44.858;38.372;2023-04-03T15:39:02;14.75;65.60
64918;HTU21D;52176;44.858;38.372;2023-04-03T15:41:27;14.77;64.56
64918;HTU21D;52176;44.858;38.372;2023-04-03T15:43:53;14.65;66.30
64918;HTU21D;52176;44.858;38.372;2023-04-03T15:46:19;14.66;66.46
64918;HTU21D;52176;44.858;38.372;2023-04-03T15:48:45;14.72;66.51
64918;HTU21D;52176;44.858;38.372;2023-04-03T15:51:11;14.71;66.63
64918;HTU21D;52176;44.858;38.372;2023-04-03T15:53:37;14.72;65.66
64918;HTU21D;52176;44.858;38.372;2023-04-03T15:56:02;14.55;66.87
64918;HTU21D;52176;44.858;38.372;2023-04-03T15:58:30;14.54;67.25
64918;HTU21D;52176;44.858;38.372;2023-04-03T16:00:56;14.55;67.28
64918;HTU21D;52176;44.858;38.372;2023-04-03T16:03:21;14.55;67.42
64918;HTU21D;52176;44.858;38.372;2023-04-03T16:05:49;14.54;67.46
64918;HTU21D;52176;44.858;38.372;2023-04-03T16:08:16;14.56;66.43
64918;HTU21D;52176;44.858;38.372;2023-04-03T16:10:43;14.38;66.15
64918;HTU21D;52176;44.858;38.372;2023-04-03T16:13:11;14.19;68.50
64918;HTU21D;52176;44.858;38.372;2023-04-03T16:15:37;14.19;67.48
64918;HTU21D;52176;44.858;38.372;2023-04-03T16:18:03;14.05;69.42
64918;HTU21D;52176;44.858;38.372;2023-04-03T16:20:29;14.06;69.81
64918;HTU21D;52176;44.858;38.372;2023-04-03T16:22:56;14.09;69.90
64918;HTU21D;52176;44.858;38.372;2023-04-03T16:25:22;14.10;69.88
64918;HTU21D;52176;44.858;38.372;2023-04-03T16:27:48;14.06;69.98
64918;HTU21D;52176;44.858;38.372;2023-04-03T16:30:14;14.05;70.16
64918;HTU21D;52176;44.858;38.372;2023-04-03T16:32:40;14.05;68.90
64918;HTU21D;52176;44.858;38.372;2023-04-03T16:35:06;13.85;68.49
64918;HTU21D;52176;44.858;38.372;2023-04-03T16:37:32;13.60;70.87
64918;HTU21D;52176;44.858;38.372;2023-04-03T16:39:59;13.55;71.48
64918;HTU21D;52176;44.858;38.372;2023-04-03T16:42:25;13.58;70.24
64918;HTU21D;52176;44.858;38.372;2023-04-03T16:44:51;13.45;69.75
64918;HTU21D;52176;44.858;38.372;2023-04-03T16:47:17;13.25;71.84
64918;HTU21D;52176;44.858;38.372;2023-04-03T16:49:44;13.24;72.31
64918;HTU21D;52176;44.858;38.372;2023-04-03T16:52:10;13.24;72.38
64918;HTU21D;52176;44.858;38.372;2023-04-03T16:54:36;13.22;72.44
64918;HTU21D;52176;44.858;38.372;2023-04-03T16:57:02;13.19;72.52
64918;HTU21D;52176;44.858;38.372;2023-04-03T16:59:28;13.17;71.43
64918;HTU21D;52176;44.858;38.372;2023-04-03T17:01:54;13.05;70.97
64918;HTU21D;52176;44.858;38.372;2023-04-03T17:04:20;12.81;73.23
64918;HTU21D;52176;44.858;38.372;2023-04-03T17:06:46;12.77;72.12
64918;HTU21D;52176;44.858;38.372;2023-04-03T17:09:11;12.65;71.75
64918;HTU21D;52176;44.858;38.372;2023-04-03T17:11:38;12.48;74.22
64918;HTU21D;52176;44.858;38.372;2023-04-03T17:14:04;12.50;74.68
64918;HTU21D;52176;44.858;38.372;2023-04-03T17:16:31;12.52;74.52
64918;HTU21D;52176;44.858;38.372;2023-04-03T17:18:58;12.50;73.23
64918;HTU21D;52176;44.858;38.372;2023-04-03T17:21:25;12.37;72.73
64918;HTU21D;52176;44.858;38.372;2023-04-03T17:23:55;12.25;72.36
64918;HTU21D;52176;44.858;38.372;2023-04-03T17:26:23;12.04;72.09
64918;HTU21D;52176;44.858;38.372;2023-04-03T17:28:49;11.82;74.62
64918;HTU21D;52176;44.858;38.372;2023-04-03T17:31:15;11.77;75.52
64918;HTU21D;52176;44.858;38.372;2023-04-03T17:33:41;11.77;75.36
64918;HTU21D;52176;44.858;38.372;2023-04-03T17:36:07;11.77;75.41
64918;HTU21D;52176;44.858;38.372;2023-04-03T17:38:33;11.75;75.12
64918;HTU21D;52176;44.858;38.372;2023-04-03T17:41:00;11.71;75.65
64918;HTU21D;52176;44.858;38.372;2023-04-03T17:43:26;11.70;74.41
64918;HTU21D;52176;44.858;38.372;2023-04-03T17:45:52;11.52;75.61
64918;HTU21D;52176;44.858;38.372;2023-04-03T17:48:18;11.45;75.99
64918;HTU21D;52176;44.858;38.372;2023-04-03T17:50:44;11.45;76.31
64918;HTU21D;52176;44.858;38.372;2023-04-03T17:53:10;11.42;76.73
64918;HTU21D;52176;44.858;38.372;2023-04-03T17:55:37;11.40;77.29
64918;HTU21D;52176;44.858;38.372;2023-04-03T17:58:03;11.42;75.94
64918;HTU21D;52176;44.858;38.372;2023-04-03T18:00:29;11.34;75.32
64918;HTU21D;52176;44.858;38.372;2023-04-03T18:02:57;11.25;74.86
64918;HTU21D;52176;44.858;38.372;2023-04-03T18:05:26;11.11;74.47
64918;HTU21D;52176;44.858;38.372;2023-04-03T18:07:52;10.94;74.29
64918;HTU21D;52176;44.858;38.372;2023-04-03T18:10:18;10.81;74.23
64918;HTU21D;52176;44.858;38.372;2023-04-03T18:12:44;10.68;74.13
64918;HTU21D;52176;44.858;38.372;2023-04-03T18:15:10;10.59;78.44
64918;HTU21D;52176;44.858;38.372;2023-04-03T18:17:36;10.62;76.97
64918;HTU21D;52176;44.858;38.372;2023-04-03T18:20:02;10.58;79.35
64918;HTU21D;52176;44.858;38.372;2023-04-03T18:22:28;10.68;80.02
64918;HTU21D;52176;44.858;38.372;2023-04-03T18:24:55;10.77;79.70
64918;HTU21D;52176;44.858;38.372;2023-04-03T18:27:21;10.84;79.37
64918;HTU21D;52176;44.858;38.372;2023-04-03T18:29:51;10.89;77.95
64918;HTU21D;52176;44.858;38.372;2023-04-03T18:32:18;10.78;77.16
64918;HTU21D;52176;44.858;38.372;2023-04-03T18:34:45;10.64;79.72
64918;HTU21D;52176;44.858;38.372;2023-04-03T18:37:10;10.70;80.34
64918;HTU21D;52176;44.858;38.372;2023-04-03T18:39:36;10.78;80.04
64918;HTU21D;52176;44.858;38.372;2023-04-03T18:42:04;10.86;80.40
64918;HTU21D;52176;44.858;38.372;2023-04-03T18:44:31;10.95;79.54
64918;HTU21D;52176;44.858;38.372;2023-04-03T18:46:57;10.95;78.30
64918;HTU21D;52176;44.858;38.372;2023-04-03T18:49:24;10.83;79.96
64918;HTU21D;52176;44.858;38.372;2023-04-03T18:51:50;10.84;80.08